Sylmar, CA (91342)

5:50 AM PDT on October 31, 2014 (GMT -0700)
KCASYLMA2 | Change Station
CLOSE
Current Station
Personal Weather Station
Location: Sylmar, CA
Elevation: 1340 ft
Nearby Weather Stations
Active Advisory: Special Statement

Elev 1340 ft 34.32 °N, 118.46 °W | Updated 5 minutes ago

Partly Cloudy
Partly Cloudy
58.1 °F
Feels Like 58.1 °F
N
2.0
Wind Variable Wind from NNE
Gusts 6.0 mph

Today
High -- | Low -- °F
--% Chance of Precip.
Yesterday
High -- | Low -- °F
Precip. -- in
7:12 AM 6:01 PM
First Quarter, 55% visible
Pressure 29.95 in
Visibility 6.0 miles
Clouds Overcast 900 ft
Dew Point 55 °F
Humidity 88%
Rainfall 0.00 in
Snow Depth Not available.
UV 0 out of 12
Pollen 3.10 out of 12
Air Quality Not available.
Flu Activity Not available.
SPECI KVNY 311227Z 00000KT 6SM HZ OVC009 16/13 A2995 RMK AO2 T01560128

More Conditions Fewer Conditions

Pressure 29.95 in
Visibility 6.0 miles
Clouds Overcast 900 ft
Dew Point 55 °F
Humidity 88%
Rainfall 0.00 in
Snow Depth Not available.
UV 0 out of 12
Pollen 3.10 out of 12
Air Quality Not available.
Flu Activity Not available.
SPECI KVNY 311227Z 00000KT 6SM HZ OVC009 16/13 A2995 RMK AO2 T01560128

More Conditions Fewer Conditions

10-Day Weather Forecast

Almanac

Astronomy

Oct. 31, 2014 Rise Set
Actual Time
Civil Twilight
Nautical Twilight
Astronomical Twilight
Moon
Length of Visible Light
Length of Day
Tomorrow will be .
, % of the Moon is Illuminated

Today's Extremes

State Highs State Lows

Community

WunderPhotos

Upload Photos

1,766,593 photos uploaded!

WunderBlogs® & News

Nearby

Air Quality

  Air Quality AQ Index Pollutant
Not available.

Snow Depth

Station Depth Elevation

Earthquake Activity

City Distance Mag. Time & Date
Minimum magnitude displayed is 2.5.

Coastal Water Temperatures

Place Temperature

Nearby Weather Stations